Time;durP1;ratioP1;P1;durP2;ratioP2;P2;SDS_P1;SDS_P2;PMS_P1;PMS_P2;Temp;Humidity;BMP_temperature;BMP_pressure;BME280_temperature;BME280_humidity;BME280_pressure;Samples;Min_cycle;Max_cycle;Signal;HPM_P1;HPM_P2
2021/12/25 00:01:20;;;;;;;19.48;15.30;;;;;;;;;;4986457;28;92831;-69
2021/12/25 00:03:50;;;;;;;14.10;10.35;;;;;;;;;;4988486;28;94375;-70
2021/12/25 00:06:17;;;;;;;20.48;14.75;;;;;;;;;;4995861;28;94778;-70
2021/12/25 00:08:43;;;;;;;16.90;13.55;;;;;;;;;;4990729;28;96980;-70
2021/12/25 00:11:10;;;;;;;14.20;12.23;;;;;;;;;;4993722;28;93707;-70
2021/12/25 00:13:38;;;;;;;13.48;11.88;;;;;;;;;;4992127;28;94361;-69
2021/12/25 00:16:04;;;;;;;25.58;12.25;;;;;;;;;;4991403;28;93818;-69
2021/12/25 00:18:31;;;;;;;15.15;11.77;;;;;;;;;;4988622;28;94015;-70
2021/12/25 00:20:57;;;;;;;15.85;13.90;;;;;;;;;;4985877;28;94343;-68
2021/12/25 00:23:24;;;;;;;23.65;16.90;;;;;;;;;;4992773;28;92974;-69
2021/12/25 00:26:22;;;;;;;16.83;15.13;;;;;;;;;;4988294;28;93207;-69
2021/12/25 00:36:14;;;;;;;18.13;16.23;;;;;;;;;;4995992;28;94336;-69
2021/12/25 00:38:42;;;;;;;12.20;11.02;;;;;;;;;;4995892;28;92951;-69
2021/12/25 00:41:09;;;;;;;8.40;7.75;;;;;;;;;;4994144;28;94544;-70
2021/12/25 00:43:36;;;;;;;14.35;12.85;;;;;;;;;;4997789;28;93523;-70
2021/12/25 00:46:03;;;;;;;15.50;13.98;;;;;;;;;;4991801;28;93125;-70
2021/12/25 00:48:29;;;;;;;12.52;11.13;;;;;;;;;;4998939;28;93211;-70
2021/12/25 00:50:56;;;;;;;15.43;13.70;;;;;;;;;;4989810;28;93050;-70
2021/12/25 00:53:22;;;;;;;15.07;13.57;;;;;;;;;;5001178;28;94036;-70
2021/12/25 00:55:49;;;;;;;11.85;10.77;;;;;;;;;;4998080;28;94322;-70
2021/12/25 00:58:15;;;;;;;11.00;10.07;;;;;;;;;;4991434;28;96362;-69
2021/12/25 01:00:42;;;;;;;10.45;9.38;;;;;;;;;;4994978;28;94155;-69
2021/12/25 01:03:10;;;;;;;12.18;11.07;;;;;;;;;;4992938;28;94049;-69
2021/12/25 01:05:36;;;;;;;11.00;9.93;;;;;;;;;;4989978;28;95621;-69
2021/12/25 01:08:04;;;;;;;12.93;11.80;;;;;;;;;;4988167;28;93926;-69
2021/12/25 01:10:34;;;;;;;8.02;7.43;;;;;;;;;;4998348;28;93775;-70
2021/12/25 01:15:38;;;;;;;10.35;9.35;;;;;;;;;;4998247;28;92477;-69
2021/12/25 01:18:52;;;;;;;9.70;8.73;;;;;;;;;;4987763;28;93477;-69
2021/12/25 01:27:10;;;;;;;13.63;12.18;;;;;;;;;;4994381;28;95575;-70
2021/12/25 01:32:52;;;;;;;8.63;7.93;;;;;;;;;;4994308;28;94194;-69
2021/12/25 01:38:57;;;;;;;10.18;9.13;;;;;;;;;;4992685;28;94328;-70
2021/12/25 01:47:52;;;;;;;8.20;7.38;;;;;;;;;;5010592;28;94031;-70
2021/12/25 01:50:22;;;;;;;17.00;11.18;;;;;;;;;;4986768;28;93889;-69
2021/12/25 01:52:49;;;;;;;16.35;12.85;;;;;;;;;;5015228;28;98059;-69
2021/12/25 01:55:20;;;;;;;12.25;10.95;;;;;;;;;;4992295;28;94124;-69
2021/12/25 01:57:46;;;;;;;14.70;13.20;;;;;;;;;;4986713;28;95611;-69
2021/12/25 02:00:17;;;;;;;13.13;11.82;;;;;;;;;;5001872;28;94204;-69
2021/12/25 02:02:44;;;;;;;13.43;12.07;;;;;;;;;;4991324;28;92530;-70
2021/12/25 02:05:11;;;;;;;13.48;12.07;;;;;;;;;;4990333;28;95442;-70
2021/12/25 02:07:38;;;;;;;14.32;12.88;;;;;;;;;;4986466;28;93888;-68
2021/12/25 02:10:05;;;;;;;15.65;14.05;;;;;;;;;;4991384;28;94491;-69
2021/12/25 02:12:33;;;;;;;14.98;13.48;;;;;;;;;;4999632;28;96219;-69
2021/12/25 02:15:06;;;;;;;14.23;12.70;;;;;;;;;;4989130;28;93316;-69
2021/12/25 02:17:54;;;;;;;13.93;11.73;;;;;;;;;;4988111;28;96066;-68
2021/12/25 02:20:52;;;;;;;22.02;14.15;;;;;;;;;;4989693;28;94509;-68
2021/12/25 02:23:21;;;;;;;16.08;13.07;;;;;;;;;;4988637;28;93281;-69
2021/12/25 02:25:49;;;;;;;19.40;16.33;;;;;;;;;;4998425;28;96019;-68
2021/12/25 02:28:16;;;;;;;13.57;12.02;;;;;;;;;;4986118;28;95705;-68
2021/12/25 02:30:43;;;;;;;20.10;17.13;;;;;;;;;;4987148;28;95817;-68
2021/12/25 02:33:10;;;;;;;16.05;13.95;;;;;;;;;;4993521;28;96133;-69
2021/12/25 02:35:37;;;;;;;20.17;15.77;;;;;;;;;;4989840;28;91815;-69
2021/12/25 02:38:03;;;;;;;12.88;11.65;;;;;;;;;;4982078;28;93229;-69
2021/12/25 02:40:30;;;;;;;19.20;15.98;;;;;;;;;;4976714;28;95455;-70
2021/12/25 02:42:56;;;;;;;16.33;14.25;;;;;;;;;;4977451;28;97395;-70
2021/12/25 02:45:23;;;;;;;17.70;13.02;;;;;;;;;;4974317;28;96951;-70
2021/12/25 02:47:51;;;;;;;12.00;9.70;;;;;;;;;;4976204;28;92875;-70
2021/12/25 02:50:25;;;;;;;25.48;17.98;;;;;;;;;;4985367;28;94306;-70
2021/12/25 02:52:52;;;;;;;21.88;14.82;;;;;;;;;;4987987;28;93404;-70
2021/12/25 02:55:19;;;;;;;24.15;17.83;;;;;;;;;;5001995;28;94300;-69
2021/12/25 02:57:50;;;;;;;25.63;20.95;;;;;;;;;;4986521;28;96306;-69
2021/12/25 03:00:21;;;;;;;29.30;16.33;;;;;;;;;;4981259;28;93457;-69
2021/12/25 03:02:48;;;;;;;24.02;15.90;;;;;;;;;;4990080;28;93360;-70
2021/12/25 03:05:15;;;;;;;19.85;14.52;;;;;;;;;;4990253;28;94272;-70
2021/12/25 03:07:42;;;;;;;26.38;15.68;;;;;;;;;;4985563;28;96521;-69
2021/12/25 03:10:09;;;;;;;27.27;18.20;;;;;;;;;;4981748;28;93116;-68
2021/12/25 03:13:05;;;;;;;29.15;19.38;;;;;;;;;;4991882;28;94245;-68
2021/12/25 03:15:40;;;;;;;23.67;17.48;;;;;;;;;;4986303;28;92882;-69
2021/12/25 03:18:07;;;;;;;27.25;17.25;;;;;;;;;;4987435;28;95355;-68
2021/12/25 03:20:34;;;;;;;30.20;21.48;;;;;;;;;;4988905;28;93285;-68
2021/12/25 03:23:00;;;;;;;22.83;16.45;;;;;;;;;;4986458;28;93145;-70
2021/12/25 03:25:26;;;;;;;26.83;16.73;;;;;;;;;;4982629;28;92959;-69
2021/12/25 03:27:56;;;;;;;23.02;18.70;;;;;;;;;;4987727;28;93325;-69
2021/12/25 03:30:24;;;;;;;22.13;14.77;;;;;;;;;;5009632;28;94473;-69
2021/12/25 03:32:50;;;;;;;24.50;18.50;;;;;;;;;;4988294;28;95727;-69
2021/12/25 03:35:17;;;;;;;20.30;11.90;;;;;;;;;;4990559;28;92927;-69
2021/12/25 03:37:43;;;;;;;32.50;21.50;;;;;;;;;;4984218;28;94361;-69
2021/12/25 03:40:10;;;;;;;25.88;17.98;;;;;;;;;;4987537;28;95042;-69
2021/12/25 03:42:36;;;;;;;24.38;15.50;;;;;;;;;;4985867;28;94726;-69
2021/12/25 03:45:03;;;;;;;20.60;15.27;;;;;;;;;;4999995;28;95275;-69
2021/12/25 03:47:38;;;;;;;20.52;14.95;;;;;;;;;;5017358;28;95062;-69
2021/12/25 03:58:14;;;;;;;19.15;15.00;;;;;;;;;;4990265;28;96316;-69
2021/12/25 04:00:43;;;;;;;20.23;15.07;;;;;;;;;;4992126;28;94387;-69
2021/12/25 04:03:17;;;;;;;11.93;10.63;;;;;;;;;;4988466;28;94577;-69
2021/12/25 04:05:47;;;;;;;21.35;14.75;;;;;;;;;;4989874;28;95732;-69
2021/12/25 04:08:16;;;;;;;20.08;13.35;;;;;;;;;;4993499;28;95740;-69
2021/12/25 04:10:44;;;;;;;20.88;14.95;;;;;;;;;;4989401;28;94333;-68
2021/12/25 04:13:12;;;;;;;24.20;14.93;;;;;;;;;;4989394;28;93249;-69
2021/12/25 04:15:38;;;;;;;13.65;10.13;;;;;;;;;;4988935;28;93450;-69
2021/12/25 04:18:05;;;;;;;13.40;10.32;;;;;;;;;;4991605;28;93319;-67
2021/12/25 04:20:32;;;;;;;17.70;12.95;;;;;;;;;;4989329;28;93268;-70
2021/12/25 04:23:09;;;;;;;16.45;10.50;;;;;;;;;;4998328;28;96188;-68
2021/12/25 04:25:36;;;;;;;12.07;8.68;;;;;;;;;;4979538;28;96755;-69
2021/12/25 04:28:12;;;;;;;13.88;10.90;;;;;;;;;;4980063;28;94100;-69
2021/12/25 04:31:04;;;;;;;17.73;12.18;;;;;;;;;;4980774;28;92549;-68
2021/12/25 04:50:16;;;;;;;12.98;8.18;;;;;;;;;;5002469;28;98173;-69
2021/12/25 05:04:28;;;;;;;13.23;6.82;;;;;;;;;;5010378;28;95577;-69
2021/12/25 05:07:14;;;;;;;7.72;5.20;;;;;;;;;;4996888;28;96230;-68
2021/12/25 05:09:40;;;;;;;6.25;4.47;;;;;;;;;;5000834;28;95437;-68
2021/12/25 05:12:08;;;;;;;3.92;3.30;;;;;;;;;;4997964;28;96195;-68
2021/12/25 05:14:35;;;;;;;3.55;3.35;;;;;;;;;;4999154;28;92523;-68
2021/12/25 05:17:02;;;;;;;2.33;2.13;;;;;;;;;;5010121;28;95072;-68
2021/12/25 05:19:29;;;;;;;3.50;2.67;;;;;;;;;;5015812;28;95449;-68
2021/12/25 05:21:55;;;;;;;4.28;3.88;;;;;;;;;;5014624;28;92459;-69
2021/12/25 05:24:23;;;;;;;3.65;3.30;;;;;;;;;;5023772;28;95308;-69
2021/12/25 05:26:57;;;;;;;3.15;2.70;;;;;;;;;;5019539;28;95424;-69
2021/12/25 05:29:25;;;;;;;3.10;2.90;;;;;;;;;;5022702;28;92682;-70
2021/12/25 05:31:52;;;;;;;3.40;3.15;;;;;;;;;;5018432;28;93203;-70
2021/12/25 05:34:21;;;;;;;2.97;2.65;;;;;;;;;;5019772;28;91721;-69
2021/12/25 05:37:05;;;;;;;3.03;2.42;;;;;;;;;;5018769;28;92417;-69
2021/12/25 05:39:50;;;;;;;2.50;2.40;;;;;;;;;;5012677;28;92947;-68
2021/12/25 05:42:22;;;;;;;2.05;1.95;;;;;;;;;;5011873;28;94960;-69
2021/12/25 05:44:50;;;;;;;2.60;1.60;;;;;;;;;;5013234;28;95264;-69
2021/12/25 05:47:22;;;;;;;2.42;2.15;;;;;;;;;;5014064;28;93277;-69
2021/12/25 05:49:54;;;;;;;5.15;1.80;;;;;;;;;;5003425;28;92446;-68
2021/12/25 05:52:54;;;;;;;1.85;1.67;;;;;;;;;;4993040;28;95776;-69
2021/12/25 05:55:46;;;;;;;1.42;1.40;;;;;;;;;;4993988;28;92555;-68
2021/12/25 05:58:44;;;;;;;1.95;1.85;;;;;;;;;;4992867;28;94664;-68
2021/12/25 06:01:19;;;;;;;4.60;1.73;;;;;;;;;;4993167;28;92390;-69
2021/12/25 06:03:46;;;;;;;2.72;1.88;;;;;;;;;;4992897;28;92521;-69
2021/12/25 06:06:14;;;;;;;1.42;1.33;;;;;;;;;;4992702;28;95175;-70
2021/12/25 06:08:40;;;;;;;2.28;2.10;;;;;;;;;;4990988;28;95838;-69
2021/12/25 06:11:08;;;;;;;2.15;1.77;;;;;;;;;;4992975;28;92513;-69
2021/12/25 06:13:44;;;;;;;1.70;1.60;;;;;;;;;;4995519;28;96020;-69
2021/12/25 06:16:12;;;;;;;2.75;2.00;;;;;;;;;;4991832;28;92555;-68
2021/12/25 06:18:58;;;;;;;2.10;2.00;;;;;;;;;;4995591;28;92851;-69
2021/12/25 06:21:25;;;;;;;1.98;1.88;;;;;;;;;;4996671;28;95556;-68
2021/12/25 06:24:10;;;;;;;2.08;1.77;;;;;;;;;;4992897;28;92909;-68
2021/12/25 06:26:44;;;;;;;1.95;1.85;;;;;;;;;;4992616;28;93534;-69
2021/12/25 06:29:29;;;;;;;2.95;1.35;;;;;;;;;;4993819;28;92573;-69
2021/12/25 06:32:08;;;;;;;2.47;1.70;;;;;;;;;;5025542;28;92481;-70
2021/12/25 06:34:47;;;;;;;3.20;1.75;;;;;;;;;;4994673;28;95262;-69
2021/12/25 06:37:31;;;;;;;2.20;2.03;;;;;;;;;;5015367;28;95458;-71
2021/12/25 06:40:22;;;;;;;2.47;1.48;;;;;;;;;;5011643;28;93350;-70
2021/12/25 06:42:50;;;;;;;1.85;1.75;;;;;;;;;;5012507;28;95670;-70
2021/12/25 06:45:16;;;;;;;1.90;1.80;;;;;;;;;;5013835;28;92453;-70
2021/12/25 06:47:42;;;;;;;2.75;1.55;;;;;;;;;;5011730;28;92871;-70
2021/12/25 06:50:19;;;;;;;5.63;1.63;;;;;;;;;;5011172;28;95263;-70
2021/12/25 06:53:00;;;;;;;2.42;1.88;;;;;;;;;;5012875;28;91718;-70
2021/12/25 06:55:46;;;;;;;2.13;1.55;;;;;;;;;;5006009;28;94332;-70
2021/12/25 06:58:20;;;;;;;1.20;1.20;;;;;;;;;;4991708;28;95895;-70
2021/12/25 07:00:46;;;;;;;1.38;1.35;;;;;;;;;;4994557;28;94885;-70
2021/12/25 07:03:13;;;;;;;3.67;1.90;;;;;;;;;;4992180;28;96084;-70
2021/12/25 07:05:58;;;;;;;3.03;1.75;;;;;;;;;;4992475;28;92403;-70
2021/12/25 07:08:48;;;;;;;1.58;1.48;;;;;;;;;;4991581;28;94924;-70
2021/12/25 07:11:36;;;;;;;3.28;1.35;;;;;;;;;;4990855;28;92678;-69
2021/12/25 07:14:12;;;;;;;1.30;1.30;;;;;;;;;;4995756;28;92512;-70
2021/12/25 07:16:48;;;;;;;2.35;1.90;;;;;;;;;;5010708;28;92663;-69
2021/12/25 07:19:33;;;;;;;4.93;1.42;;;;;;;;;;5013600;28;91981;-69
2021/12/25 07:21:59;;;;;;;4.00;2.15;;;;;;;;;;5012939;28;92476;-69
2021/12/25 07:24:49;;;;;;;1.73;1.63;;;;;;;;;;5015024;28;95246;-69
2021/12/25 07:27:36;;;;;;;4.45;2.00;;;;;;;;;;5010828;28;94888;-69
2021/12/25 07:30:04;;;;;;;1.80;1.70;;;;;;;;;;5011019;28;95675;-68
2021/12/25 07:32:30;;;;;;;1.75;1.70;;;;;;;;;;5012626;28;94323;-69
2021/12/25 07:34:57;;;;;;;2.15;1.48;;;;;;;;;;5012736;28;92502;-70
2021/12/25 07:37:24;;;;;;;1.65;1.55;;;;;;;;;;5011885;28;93484;-69
2021/12/25 07:39:50;;;;;;;2.35;1.67;;;;;;;;;;5012719;28;93202;-69
2021/12/25 07:42:16;;;;;;;1.52;1.42;;;;;;;;;;5011970;28;92447;-69
2021/12/25 07:45:05;;;;;;;4.65;2.47;;;;;;;;;;5013008;28;93228;-70
2021/12/25 07:47:34;;;;;;;4.18;1.67;;;;;;;;;;5012172;28;92514;-69
2021/12/25 07:50:01;;;;;;;1.23;1.23;;;;;;;;;;5012427;28;94429;-69
2021/12/25 07:52:28;;;;;;;1.42;1.42;;;;;;;;;;5010947;28;96491;-69
2021/12/25 07:54:54;;;;;;;1.25;1.25;;;;;;;;;;5012204;28;92636;-70
2021/12/25 07:57:21;;;;;;;3.50;1.75;;;;;;;;;;5011361;28;93258;-69
2021/12/25 07:59:48;;;;;;;2.63;1.90;;;;;;;;;;5011263;28;93614;-69
2021/12/25 08:02:14;;;;;;;5.30;2.10;;;;;;;;;;4993514;28;92633;-69
2021/12/25 08:04:41;;;;;;;1.58;1.45;;;;;;;;;;4991857;28;94228;-69
2021/12/25 08:07:07;;;;;;;1.55;1.52;;;;;;;;;;4995412;28;93841;-70
2021/12/25 08:09:35;;;;;;;2.85;1.58;;;;;;;;;;4992692;28;94129;-70
2021/12/25 08:12:02;;;;;;;2.30;2.20;;;;;;;;;;4991606;28;94178;-70
2021/12/25 08:14:29;;;;;;;2.08;1.70;;;;;;;;;;4991933;28;92423;-69
2021/12/25 08:16:56;;;;;;;2.08;1.98;;;;;;;;;;5009478;28;95338;-69
2021/12/25 08:19:28;;;;;;;2.75;1.90;;;;;;;;;;5010034;28;94228;-70
2021/12/25 08:22:30;;;;;;;2.10;2.00;;;;;;;;;;5003764;28;93232;-70
2021/12/25 08:25:16;;;;;;;2.53;1.83;;;;;;;;;;4975407;28;92751;-68
2021/12/25 08:28:02;;;;;;;2.10;2.00;;;;;;;;;;4980565;28;92792;-69
2021/12/25 08:30:28;;;;;;;2.47;2.38;;;;;;;;;;4983534;28;92595;-69
2021/12/25 08:33:13;;;;;;;2.53;1.92;;;;;;;;;;4978073;28;92640;-69
2021/12/25 08:35:58;;;;;;;3.05;2.42;;;;;;;;;;4995646;28;91756;-69
2021/12/25 08:38:24;;;;;;;1.90;1.80;;;;;;;;;;4989077;28;94140;-69
2021/12/25 08:40:54;;;;;;;1.60;1.60;;;;;;;;;;4989937;28;94793;-70
2021/12/25 08:43:24;;;;;;;1.67;1.60;;;;;;;;;;4993125;28;94887;-69
2021/12/25 08:46:02;;;;;;;2.25;1.60;;;;;;;;;;4994805;28;96297;-69
2021/12/25 08:48:30;;;;;;;1.80;1.75;;;;;;;;;;4975371;28;93726;-69
2021/12/25 08:50:57;;;;;;;3.70;1.85;;;;;;;;;;4980396;28;92495;-69
2021/12/25 08:53:25;;;;;;;3.67;1.75;;;;;;;;;;4996974;28;93827;-69
2021/12/25 08:55:54;;;;;;;2.28;1.90;;;;;;;;;;4988792;28;93424;-69
2021/12/25 08:58:21;;;;;;;1.73;1.63;;;;;;;;;;4992513;28;94365;-69
2021/12/25 09:00:50;;;;;;;1.30;1.30;;;;;;;;;;4995256;28;95410;-69
2021/12/25 09:03:22;;;;;;;1.00;1.00;;;;;;;;;;4995085;28;92449;-69
2021/12/25 09:05:48;;;;;;;1.55;1.45;;;;;;;;;;4994868;28;93432;-70
2021/12/25 09:08:14;;;;;;;1.60;1.30;;;;;;;;;;4992454;28;95740;-69
2021/12/25 09:10:41;;;;;;;2.90;1.33;;;;;;;;;;4995239;28;92506;-70
2021/12/25 09:13:07;;;;;;;1.55;1.45;;;;;;;;;;4975900;28;93842;-70
2021/12/25 09:15:33;;;;;;;1.52;1.48;;;;;;;;;;4976854;28;94206;-70
2021/12/25 09:18:00;;;;;;;2.75;1.55;;;;;;;;;;4974983;28;93858;-70
2021/12/25 09:20:26;;;;;;;1.92;1.77;;;;;;;;;;4974561;28;94278;-70
2021/12/25 09:22:53;;;;;;;1.23;1.15;;;;;;;;;;4990225;28;92577;-70
2021/12/25 09:25:19;;;;;;;1.98;1.48;;;;;;;;;;4994880;28;94462;-70
2021/12/25 09:27:45;;;;;;;1.23;1.23;;;;;;;;;;4994607;28;94584;-70
2021/12/25 09:30:12;;;;;;;0.88;0.88;;;;;;;;;;4994248;28;92717;-70
2021/12/25 09:32:39;;;;;;;1.80;1.55;;;;;;;;;;4990700;28;95845;-70
2021/12/25 09:35:05;;;;;;;0.95;0.88;;;;;;;;;;4994415;28;94207;-70
2021/12/25 09:37:32;;;;;;;1.63;1.15;;;;;;;;;;4991356;28;93930;-70
2021/12/25 09:39:58;;;;;;;0.98;0.98;;;;;;;;;;4993454;28;94241;-68
2021/12/25 09:42:25;;;;;;;0.90;0.90;;;;;;;;;;4991110;28;93146;-68
2021/12/25 09:44:53;;;;;;;6.13;1.20;;;;;;;;;;4984925;28;94464;-68
2021/12/25 09:47:19;;;;;;;1.00;1.00;;;;;;;;;;4993602;28;92926;-70
2021/12/25 09:49:46;;;;;;;1.02;1.02;;;;;;;;;;4978379;28;92718;-70
2021/12/25 09:52:13;;;;;;;1.42;1.33;;;;;;;;;;4976654;28;93202;-70
2021/12/25 09:54:39;;;;;;;1.10;1.10;;;;;;;;;;4985475;28;93556;-70
2021/12/25 09:57:06;;;;;;;1.10;1.10;;;;;;;;;;4979808;28;95204;-70
2021/12/25 09:59:32;;;;;;;1.00;1.00;;;;;;;;;;4982075;28;94595;-69
2021/12/25 10:02:00;;;;;;;0.90;0.90;;;;;;;;;;4980141;28;92506;-70
2021/12/25 10:04:30;;;;;;;1.00;1.00;;;;;;;;;;4980311;28;93112;-70
2021/12/25 10:06:57;;;;;;;1.35;1.05;;;;;;;;;;4991841;28;93601;-70
2021/12/25 10:09:24;;;;;;;1.45;1.27;;;;;;;;;;4992970;28;93123;-70
2021/12/25 10:11:57;;;;;;;1.10;1.10;;;;;;;;;;4979278;28;92426;-70
2021/12/25 10:14:28;;;;;;;1.45;1.15;;;;;;;;;;4992304;28;92905;-70
2021/12/25 10:16:55;;;;;;;0.98;0.98;;;;;;;;;;4993797;28;92854;-69
2021/12/25 10:19:23;;;;;;;1.08;1.00;;;;;;;;;;4995812;28;93998;-69
2021/12/25 10:22:03;;;;;;;1.23;0.93;;;;;;;;;;4993070;28;95531;-70
2021/12/25 10:24:30;;;;;;;0.98;0.98;;;;;;;;;;4992962;28;96009;-69
2021/12/25 10:27:14;;;;;;;1.48;1.38;;;;;;;;;;4991232;28;94374;-69
2021/12/25 10:29:40;;;;;;;1.10;1.10;;;;;;;;;;4993687;28;92436;-70
2021/12/25 10:32:18;;;;;;;1.00;1.00;;;;;;;;;;4993114;28;93901;-70
2021/12/25 10:34:45;;;;;;;1.10;1.00;;;;;;;;;;4993767;28;93489;-69
2021/12/25 10:37:14;;;;;;;1.02;0.93;;;;;;;;;;4993471;28;92408;-69
2021/12/25 10:39:40;;;;;;;1.00;1.00;;;;;;;;;;4991884;28;94748;-69
2021/12/25 10:42:14;;;;;;;0.98;0.98;;;;;;;;;;4985437;28;93492;-69
2021/12/25 10:44:52;;;;;;;1.10;1.00;;;;;;;;;;4978574;28;93273;-69
2021/12/25 10:47:26;;;;;;;0.80;0.80;;;;;;;;;;4972238;28;96006;-69
2021/12/25 10:49:54;;;;;;;1.05;0.82;;;;;;;;;;4973593;28;92544;-69
2021/12/25 10:52:32;;;;;;;0.90;0.90;;;;;;;;;;4988099;28;93214;-69
2021/12/25 10:55:00;;;;;;;1.38;0.93;;;;;;;;;;4990273;28;94340;-69
2021/12/25 10:57:34;;;;;;;1.17;0.93;;;;;;;;;;4991112;28;94014;-70
2021/12/25 11:00:01;;;;;;;0.88;0.88;;;;;;;;;;4986531;28;94286;-69
2021/12/25 11:02:33;;;;;;;0.80;0.80;;;;;;;;;;4990993;28;94107;-69
2021/12/25 11:05:00;;;;;;;1.40;1.20;;;;;;;;;;4986127;28;91743;-69
2021/12/25 11:07:26;;;;;;;0.80;0.80;;;;;;;;;;4978466;28;93373;-69
2021/12/25 11:10:10;;;;;;;0.85;0.85;;;;;;;;;;4983612;28;92413;-69
2021/12/25 11:12:37;;;;;;;1.00;1.00;;;;;;;;;;4988155;28;94835;-68
2021/12/25 11:15:11;;;;;;;4.93;1.23;;;;;;;;;;4988321;28;93346;-70
2021/12/25 11:17:42;;;;;;;1.73;1.15;;;;;;;;;;4986801;28;92665;-69
2021/12/25 11:20:18;;;;;;;1.80;1.07;;;;;;;;;;4993283;28;92480;-70
2021/12/25 11:22:51;;;;;;;0.90;0.90;;;;;;;;;;4989453;28;93190;-69
2021/12/25 11:25:19;;;;;;;3.22;1.08;;;;;;;;;;4983895;28;92639;-69
2021/12/25 11:27:47;;;;;;;0.80;0.80;;;;;;;;;;4993734;28;94453;-67
2021/12/25 11:30:14;;;;;;;0.85;0.85;;;;;;;;;;4973595;28;91678;-68
2021/12/25 11:32:40;;;;;;;1.70;0.73;;;;;;;;;;4988976;28;93724;-69
2021/12/25 11:35:08;;;;;;;1.45;1.10;;;;;;;;;;4989556;28;93405;-68
2021/12/25 11:37:35;;;;;;;8.00;4.82;;;;;;;;;;4985310;28;96233;-69
2021/12/25 11:40:01;;;;;;;3.30;1.02;;;;;;;;;;4976325;28;95446;-70
2021/12/25 11:42:29;;;;;;;1.08;1.08;;;;;;;;;;4984565;28;93047;-69
2021/12/25 11:44:56;;;;;;;1.10;0.95;;;;;;;;;;4992657;28;92456;-69
2021/12/25 11:47:31;;;;;;;1.05;0.93;;;;;;;;;;4988807;28;94111;-69
2021/12/25 11:49:59;;;;;;;5.57;1.20;;;;;;;;;;4979531;28;93146;-70
2021/12/25 11:52:31;;;;;;;1.15;1.13;;;;;;;;;;4987936;28;94167;-69
2021/12/25 11:55:24;;;;;;;1.00;1.00;;;;;;;;;;4991839;28;93679;-69
2021/12/25 12:00:37;;;;;;;0.93;0.93;;;;;;;;;;4978799;28;94166;-69
2021/12/25 12:03:04;;;;;;;1.23;1.00;;;;;;;;;;4991481;28;95110;-70
2021/12/25 12:05:32;;;;;;;1.15;1.15;;;;;;;;;;4981008;28;94555;-70
2021/12/25 12:08:05;;;;;;;0.93;0.93;;;;;;;;;;4988564;28;93374;-69
2021/12/25 12:10:55;;;;;;;6.60;1.08;;;;;;;;;;4975210;28;93327;-69
2021/12/25 12:13:40;;;;;;;0.88;0.88;;;;;;;;;;4993159;28;92554;-69
2021/12/25 12:16:43;;;;;;;2.00;1.02;;;;;;;;;;4967027;28;93462;-69
2021/12/25 12:19:35;;;;;;;0.93;0.93;;;;;;;;;;4982404;28;94116;-69
2021/12/25 12:22:39;;;;;;;1.13;1.10;;;;;;;;;;4992951;28;93367;-69
2021/12/25 12:27:46;;;;;;;1.33;1.13;;;;;;;;;;4987923;28;92588;-69
2021/12/25 12:30:33;;;;;;;2.35;1.02;;;;;;;;;;4977244;28;94910;-69
2021/12/25 12:33:23;;;;;;;0.70;0.70;;;;;;;;;;4987164;28;93584;-68
2021/12/25 12:35:50;;;;;;;5.05;1.13;;;;;;;;;;4973465;28;92556;-69
2021/12/25 12:38:39;;;;;;;2.28;1.08;;;;;;;;;;4989482;28;94695;-69
2021/12/25 12:41:18;;;;;;;0.80;0.80;;;;;;;;;;4988734;28;93053;-69
2021/12/25 12:43:58;;;;;;;1.65;0.80;;;;;;;;;;4993289;28;92493;-70
2021/12/25 12:46:46;;;;;;;1.63;1.00;;;;;;;;;;4993415;28;93976;-69
2021/12/25 12:49:13;;;;;;;3.10;1.38;;;;;;;;;;4980875;28;91800;-69
2021/12/25 12:51:40;;;;;;;4.45;1.35;;;;;;;;;;4977821;28;93151;-69
2021/12/25 12:54:06;;;;;;;5.35;1.08;;;;;;;;;;4974615;28;93296;-70
2021/12/25 12:56:33;;;;;;;1.38;1.10;;;;;;;;;;4977371;28;95276;-70
2021/12/25 12:59:01;;;;;;;2.80;1.20;;;;;;;;;;4991270;28;96362;-70
2021/12/25 13:01:27;;;;;;;2.28;1.10;;;;;;;;;;4985619;28;92644;-69
2021/12/25 13:03:56;;;;;;;2.38;1.48;;;;;;;;;;4985344;28;93659;-69
2021/12/25 13:06:25;;;;;;;1.08;1.08;;;;;;;;;;4988668;28;93425;-69
2021/12/25 13:08:52;;;;;;;1.10;1.10;;;;;;;;;;4991194;28;92574;-69
2021/12/25 13:13:59;;;;;;;1.60;1.00;;;;;;;;;;4986421;28;93500;-70
2021/12/25 13:16:33;;;;;;;4.03;1.17;;;;;;;;;;4993861;28;92464;-71
2021/12/25 13:19:03;;;;;;;3.15;1.52;;;;;;;;;;4996174;28;94389;-70
2021/12/25 13:21:30;;;;;;;0.88;0.88;;;;;;;;;;5003107;28;97186;-69
2021/12/25 13:23:58;;;;;;;1.00;1.00;;;;;;;;;;4985702;28;96219;-69
2021/12/25 13:26:31;;;;;;;1.40;1.30;;;;;;;;;;4993943;28;93453;-69
2021/12/25 13:28:58;;;;;;;1.08;0.98;;;;;;;;;;4993764;28;92542;-68
2021/12/25 13:31:25;;;;;;;2.30;1.65;;;;;;;;;;4994316;28;93865;-69
2021/12/25 13:33:53;;;;;;;1.00;1.00;;;;;;;;;;4994441;28;94104;-69
2021/12/25 13:36:21;;;;;;;1.60;1.10;;;;;;;;;;4993774;28;92533;-70
2021/12/25 13:38:48;;;;;;;0.88;0.88;;;;;;;;;;4994792;28;93309;-69
2021/12/25 13:41:28;;;;;;;1.05;1.05;;;;;;;;;;4994380;28;92491;-70
2021/12/25 13:44:12;;;;;;;2.65;1.02;;;;;;;;;;4997913;28;92708;-69
2021/12/25 13:46:38;;;;;;;1.98;1.02;;;;;;;;;;4992300;28;96567;-69
2021/12/25 13:49:05;;;;;;;5.60;1.23;;;;;;;;;;4993801;28;92394;-69
2021/12/25 13:51:31;;;;;;;1.00;1.00;;;;;;;;;;4993962;28;93937;-69
2021/12/25 13:53:58;;;;;;;1.52;1.42;;;;;;;;;;4993668;28;93990;-69
2021/12/25 13:56:24;;;;;;;1.33;1.25;;;;;;;;;;4993526;28;92447;-69
2021/12/25 13:58:50;;;;;;;3.60;1.42;;;;;;;;;;4994295;28;93986;-69
2021/12/25 14:01:17;;;;;;;1.10;1.10;;;;;;;;;;4993741;28;94665;-69
2021/12/25 14:03:43;;;;;;;0.98;0.98;;;;;;;;;;4993352;28;92165;-69
2021/12/25 14:06:10;;;;;;;3.25;1.50;;;;;;;;;;4997068;28;93327;-70
2021/12/25 14:08:36;;;;;;;2.22;1.30;;;;;;;;;;4993791;28;92493;-70
2021/12/25 14:11:02;;;;;;;2.10;1.40;;;;;;;;;;4991832;28;94969;-70
2021/12/25 14:13:31;;;;;;;2.13;1.60;;;;;;;;;;4992981;28;93311;-69
2021/12/25 14:15:58;;;;;;;1.85;1.30;;;;;;;;;;4993866;28;92505;-69
2021/12/25 14:18:30;;;;;;;1.23;1.10;;;;;;;;;;4992989;28;93332;-70
2021/12/25 14:21:11;;;;;;;1.45;1.45;;;;;;;;;;4993595;28;93560;-69
2021/12/25 14:23:37;;;;;;;1.98;1.35;;;;;;;;;;4993366;28;92668;-70
2021/12/25 14:26:03;;;;;;;5.32;1.52;;;;;;;;;;4996490;28;93850;-69
2021/12/25 14:28:30;;;;;;;1.17;1.17;;;;;;;;;;4994113;28;91708;-70
2021/12/25 14:31:02;;;;;;;1.67;1.58;;;;;;;;;;4992670;28;92455;-69
2021/12/25 14:33:29;;;;;;;1.85;1.60;;;;;;;;;;4993077;28;94216;-69
2021/12/25 14:35:56;;;;;;;1.08;1.08;;;;;;;;;;4992043;28;94818;-71
2021/12/25 14:38:22;;;;;;;1.92;1.30;;;;;;;;;;4992660;28;94864;-69
2021/12/25 14:40:50;;;;;;;1.70;1.60;;;;;;;;;;4992706;28;93466;-69
2021/12/25 14:43:18;;;;;;;1.13;1.13;;;;;;;;;;4992969;28;92437;-69
2021/12/25 14:45:46;;;;;;;1.35;1.25;;;;;;;;;;4993082;28;94700;-69
2021/12/25 14:48:13;;;;;;;1.38;1.27;;;;;;;;;;4996906;28;93075;-69
2021/12/25 14:50:40;;;;;;;1.45;1.40;;;;;;;;;;4993350;28;95301;-70
2021/12/25 14:53:06;;;;;;;1.60;1.55;;;;;;;;;;4993188;28;92872;-69
2021/12/25 14:55:35;;;;;;;5.20;1.40;;;;;;;;;;4992760;28;92471;-70
2021/12/25 14:58:06;;;;;;;1.38;1.27;;;;;;;;;;4993182;28;94066;-69
2021/12/25 15:00:34;;;;;;;1.48;1.38;;;;;;;;;;4984661;28;96659;-69
2021/12/25 15:03:11;;;;;;;1.42;1.33;;;;;;;;;;4998077;28;93551;-70
2021/12/25 15:05:38;;;;;;;1.60;1.50;;;;;;;;;;5012331;28;93910;-69
2021/12/25 15:08:25;;;;;;;1.20;1.20;;;;;;;;;;4997067;28;94382;-69
2021/12/25 15:10:53;;;;;;;1.77;1.40;;;;;;;;;;4988583;28;92499;-69
2021/12/25 15:13:21;;;;;;;2.40;1.52;;;;;;;;;;4981168;28;94258;-69
2021/12/25 15:15:49;;;;;;;2.15;1.40;;;;;;;;;;4985550;28;92737;-69
2021/12/25 15:18:22;;;;;;;4.32;1.90;;;;;;;;;;4980104;28;93274;-69
2021/12/25 15:21:01;;;;;;;1.30;1.25;;;;;;;;;;4986361;28;93776;-69
2021/12/25 15:23:27;;;;;;;1.23;1.23;;;;;;;;;;4988053;28;94219;-68
2021/12/25 15:26:04;;;;;;;1.33;1.23;;;;;;;;;;4987019;28;95252;-68
2021/12/25 15:28:30;;;;;;;1.20;1.20;;;;;;;;;;4982430;28;94118;-69
2021/12/25 15:31:13;;;;;;;5.43;1.70;;;;;;;;;;4981222;28;92421;-68
2021/12/25 15:33:43;;;;;;;2.20;1.67;;;;;;;;;;4988743;28;92846;-68
2021/12/25 15:36:13;;;;;;;1.98;1.88;;;;;;;;;;4990052;28;94047;-68
2021/12/25 15:38:40;;;;;;;1.40;1.30;;;;;;;;;;4991122;28;94455;-68
2021/12/25 15:41:06;;;;;;;2.63;1.50;;;;;;;;;;4980501;28;93182;-70
2021/12/25 15:43:33;;;;;;;1.83;1.73;;;;;;;;;;4977926;28;92195;-68
2021/12/25 15:46:03;;;;;;;4.00;1.38;;;;;;;;;;4977924;28;93339;-69
2021/12/25 15:48:30;;;;;;;2.55;2.08;;;;;;;;;;4986072;28;94329;-69
2021/12/25 15:50:56;;;;;;;2.40;1.60;;;;;;;;;;4984797;28;96769;-69
2021/12/25 15:53:23;;;;;;;2.00;1.30;;;;;;;;;;4993563;28;95795;-69
2021/12/25 15:55:49;;;;;;;1.60;1.50;;;;;;;;;;4991691;28;95932;-70
2021/12/25 15:58:23;;;;;;;3.53;1.80;;;;;;;;;;5003845;28;93946;-70
2021/12/25 16:00:49;;;;;;;1.27;1.15;;;;;;;;;;4980232;28;94288;-69
2021/12/25 16:03:16;;;;;;;1.25;1.17;;;;;;;;;;4988510;28;96568;-69
2021/12/25 16:05:44;;;;;;;1.80;1.70;;;;;;;;;;4998339;28;94301;-70
2021/12/25 16:08:11;;;;;;;6.80;2.03;;;;;;;;;;4996025;28;92528;-69
2021/12/25 16:10:42;;;;;;;1.65;1.55;;;;;;;;;;4998863;28;92948;-69
2021/12/25 16:13:08;;;;;;;2.17;2.03;;;;;;;;;;5005798;28;95331;-69